Search for airport 
image banner adimage banner adimage banner ad
image banner ad

KUDD - Bermuda Dunes

Located in Palm Springs, United States

ICAO - UDD, IATA -

Data provided by Airmate  

General information

Coordinates: N33°44'54" W116°16'29"
Elevation is 73 feet MSL.
Magnetic variation is 14° East
View others Airports in California

Operational data

Special qualification required
Current time UTC:
Current local time:
Weather at : KTRM - Jacqueline Cochran Rgnl ( 17 km )
METAR: KTRM 240852Z AUTO 34007KT 10SM CLR 29/13 A2981 RMK AO2 SLP096 T02890128 50001
TAF: KTRM 240520Z 2406/2506 33010KT P6SM SCT200 FM241300 33007KT P6SM SKC FM242100 17010G17KT P6SM SKC FM250200 33019G26KT P6SM SCT250
View NOTAMs / SUP AIP / TFR affecting this airport [VIEW]
Communications frequencies: [VIEW]

Runways:

RWY identifierQFULength (ft)Width (ft)SurfaceLDA (ft)
10116°500270ASPH
28296°500270ASPH

Airport contact information

Address: Palm Springs United States

Other aviation service providers

Flight schools

Desert West Aviation

Desert West Aviation

Satellite view of KUDD